Maribo, Denmark

12:14 AM CEST on Juli 29, 2016 (GMT +0200)
Kastanievej | | Change Station

Elev 13 ft 54.80 °N, 11.62 °E | Updated 7 minutes ago

Clear
Klart
62.1 ° F
Føles som 62.1 ° F
N
0.6
Vind Skiftende Vind Vest
Gusts 1.2 mph

I dag
Høj -- | Lav -- ° F
--% Risiko for nedbør
I går
Høj -- | Lav -- ° F
Precip. -- tommer
Tryk 29.92 tommer
Sigtbarhed -9999.0 mil
Skyer
Dugpunkt 53 ° F
Luftfugtighed 73%
Regnmængde tommer
Snedybde Ikke tilgængelig.
5:19 AM 9:20 PM
Aftagende halvmåne, 28% visible
METAR EDHK 281550Z 24005KT 190V280 CAVOK 23/13 Q1013
Tryk 29.92 tommer
Sigtbarhed -9999.0 mil
Skyer
Dugpunkt 53 ° F
Luftfugtighed 73%
Regnmængde tommer
Snedybde Ikke tilgængelig.
5:19 AM 9:20 PM
Aftagende halvmåne, 28% visible
METAR EDHK 281550Z 24005KT 190V280 CAVOK 23/13 Q1013

10-Day Weather Forecast

×

Almanac

Astronomi

Jul. 29, 2016 Opgang Nedgang
Faktisktidspunkt
Civilttusmørke
Nautisktusmørke
Astronomisktusmørke
Måne
Synligtlys’ længde
Dagens længde
Tomorrow will be .
, % of the Moon is Illuminated

Ekstremer i dag

Country Highs Country Lows

Community

WunderPhotos

Upload Photos

1,928,219 Billeder uploaded!

WunderBlog® & News

Nearby

Luftkvalitet

  Luftkvalitet AQ-indeks Forureningskilder
Not available.

Snedybde

Station Depth Højde

Jordskælvsaktivitet

By Distance Mag. Time & Date
Minimum magnitude displayed is 2.5.

Kystnære vandtemperaturer

Sted Temperatur

Stations

Vejrstationer i nærheden

Stationenssted Temp. Vindeffekt Dugpunkt Luftfugtighed Vind Precip. Elev Opdateret Type